Historie AUP a zpráv METAR Praha-Ruzyně z 12:00 UTC

Datum: 20-07-2018 / Vyber datum:
COR LKPR 201200Z VRB03KT CAVOK 26/08 Q1015 NOSIG
Prostor Spodní hranice Horní hranice Od Do
TRA61 GND 3000FT/AMSL 07:00 12:00
TRA62 3000FT/AMSL F245 07:00 12:00
TRA77 1000FT/AGL F245 07:00 12:00
TRA78 F075 F245 07:00 12:00
TRA79 F075 F245 07:00 12:00
TSA1 GND F115 07:00 10:00
TSA2A GND F125 06:00 10:10
TSA2B GND F135 07:00 11:10
TSA3A GND F125 07:00 11:30
TSA5B GND F135 07:00 15:00